createdAt,value
2023-01-10T06:46:16.298Z,5.04
2023-01-10T06:49:11.696Z,5.04
2023-01-10T06:51:57.047Z,4.33
2023-01-10T06:54:42.635Z,4.39
2023-01-10T06:57:29.443Z,4.46
2023-01-10T07:00:17.137Z,4.43
2023-01-10T07:03:05.382Z,4.39
2023-01-10T07:05:50.749Z,4.29
2023-01-10T07:08:37.701Z,4.30
2023-01-10T07:11:23.236Z,4.28
2023-01-10T07:14:10.067Z,4.35
2023-01-10T07:16:55.858Z,4.33
2023-01-10T07:19:41.179Z,4.17
2023-01-10T07:22:26.654Z,4.18
2023-01-10T07:25:12.032Z,4.19
2023-01-10T07:27:57.496Z,4.16
2023-01-10T07:30:43.561Z,4.25
2023-01-10T07:33:29.700Z,4.23
2023-01-10T07:36:15.685Z,4.20
2023-01-10T07:39:00.871Z,4.29
2023-01-10T07:41:53.594Z,4.27
2023-01-10T07:44:39.480Z,4.22
2023-01-10T07:47:26.643Z,4.19
2023-01-10T07:50:13.163Z,4.22
2023-01-10T07:53:01.310Z,4.26
2023-01-10T07:55:47.995Z,4.33
2023-01-10T07:58:35.926Z,4.35
2023-01-10T08:01:21.631Z,4.22
2023-01-10T08:04:07.497Z,4.19
2023-01-10T08:06:54.938Z,4.34
2023-01-10T08:09:40.696Z,4.36
2023-01-10T08:12:26.319Z,4.41
2023-01-10T08:15:12.255Z,4.45
2023-01-10T08:18:05.015Z,4.36
2023-01-10T08:20:53.136Z,4.51
2023-01-10T08:23:39.671Z,4.48
2023-01-10T08:26:25.167Z,4.48
2023-01-10T08:29:10.163Z,4.46
2023-01-10T08:31:55.835Z,4.52
2023-01-10T08:34:41.448Z,4.53
2023-01-10T08:37:27.719Z,4.57
2023-01-10T08:40:14.618Z,4.59
2023-01-10T08:43:01.797Z,4.62
2023-01-10T08:45:47.438Z,4.64
2023-01-10T08:48:33.347Z,4.66
2023-01-10T08:51:18.927Z,4.63
2023-01-10T08:54:04.323Z,4.65
2023-01-10T08:56:50.954Z,4.64
2023-01-10T08:59:36.279Z,4.66
2023-01-10T09:02:21.773Z,4.62
2023-01-10T09:05:26.416Z,4.67
2023-01-10T09:08:12.470Z,4.68
2023-01-10T09:11:01.773Z,4.74
2023-01-10T09:13:50.654Z,4.66
2023-01-10T09:16:36.017Z,4.80
2023-01-10T09:19:21.330Z,4.80
2023-01-10T09:22:07.643Z,4.81
2023-01-10T09:24:52.855Z,4.85
2023-01-10T09:27:38.339Z,4.85
2023-01-10T09:30:23.554Z,4.96
2023-01-10T09:33:10.521Z,4.98
2023-01-10T09:35:58.657Z,5.03
2023-01-10T09:38:45.361Z,5.00
2023-01-10T09:41:49.175Z,5.18
2023-01-10T09:44:38.753Z,5.24
2023-01-10T09:47:45.845Z,5.23
2023-01-10T09:51:05.289Z,5.28
2023-01-10T09:53:53.844Z,5.28
2023-01-10T09:56:41.676Z,5.31
2023-01-10T09:59:37.513Z,5.41
2023-01-10T10:02:33.355Z,5.34
2023-01-10T10:05:26.934Z,5.44
2023-01-10T10:08:18.075Z,5.40
2023-01-10T10:11:11.090Z,5.46
2023-01-10T10:14:02.688Z,5.47
2023-01-10T10:17:16.417Z,5.48
2023-01-10T10:20:20.211Z,5.47
2023-01-10T10:23:26.018Z,5.48
2023-01-10T10:26:35.576Z,5.52
2023-01-10T10:29:50.410Z,5.41
2023-01-10T10:32:50.678Z,5.50
2023-01-10T10:35:42.248Z,5.42
2023-01-10T10:38:30.782Z,5.46
2023-01-10T10:41:28.951Z,5.50
2023-01-10T10:44:42.490Z,5.54
2023-01-10T10:47:33.254Z,5.53
2023-01-10T10:50:26.337Z,5.50
2023-01-10T10:53:12.516Z,5.43
2023-01-10T10:55:59.077Z,5.41
2023-01-10T10:58:46.490Z,5.37
2023-01-10T11:01:31.622Z,5.47
2023-01-10T11:04:20.158Z,5.44
2023-01-10T11:07:05.829Z,5.39
2023-01-10T11:09:56.078Z,5.38
2023-01-10T11:12:48.088Z,5.48
2023-01-10T11:15:42.804Z,5.45
2023-01-10T11:18:30.673Z,5.50
2023-01-10T11:21:21.056Z,5.37
2023-01-10T11:24:21.600Z,5.46
2023-01-10T11:27:27.096Z,5.47
2023-01-10T11:30:19.841Z,5.52
2023-01-10T11:33:09.064Z,5.50
2023-01-10T11:36:16.007Z,5.50
2023-01-10T11:39:05.113Z,5.51
2023-01-10T11:41:53.262Z,5.47
2023-01-10T11:44:38.695Z,5.52
2023-01-10T11:47:37.969Z,5.55
2023-01-10T11:50:41.092Z,5.56
2023-01-10T11:53:36.729Z,5.51
2023-01-10T11:56:41.715Z,5.53
2023-01-10T11:59:28.349Z,5.55
2023-01-10T12:02:36.293Z,5.56
2023-01-10T12:05:29.890Z,5.62
2023-01-10T12:08:33.595Z,5.65
2023-01-10T12:11:31.945Z,5.56
2023-01-10T12:14:21.489Z,5.71
2023-01-10T12:17:07.243Z,5.75
2023-01-10T12:19:54.098Z,5.69
2023-01-10T12:22:42.107Z,5.74
2023-01-10T12:25:33.677Z,5.77
2023-01-10T12:28:25.126Z,5.78
2023-01-10T12:31:15.399Z,5.76
2023-01-10T12:34:05.543Z,5.84
2023-01-10T12:37:31.462Z,5.87
